Time;durP1;ratioP1;P1;durP2;ratioP2;P2;SDS_P1;SDS_P2;PMS_P1;PMS_P2;Temp;Humidity;BMP_temperature;BMP_pressure;BME280_temperature;BME280_humidity;BME280_pressure;Samples;Min_cycle;Max_cycle;Signal;HPM_P1;HPM_P2
2021/03/10 00:01:26;;;;;;;30.45;19.58;;;3.70;99.90;;;;;;4986695;28;20026;-71
2021/03/10 00:03:51;;;;;;;31.42;20.13;;;3.80;99.90;;;;;;4985745;28;20034;-70
2021/03/10 00:06:19;;;;;;;32.05;19.80;;;;;;;;;;4987193;28;20030;-76
2021/03/10 00:08:45;;;;;;;35.63;20.30;;;;;;;;;;4986348;28;20194;-70
2021/03/10 00:11:13;;;;;;;31.73;18.75;;;;;;;;;;4987256;28;20135;-71
2021/03/10 00:13:39;;;;;;;32.95;20.63;;;;;;;;;;4985880;28;20489;-70
2021/03/10 00:16:05;;;;;;;31.63;19.70;;;0.20;99.90;;;;;;4985968;28;20061;-70
2021/03/10 00:18:30;;;;;;;32.30;19.60;;;3.40;99.90;;;;;;4985372;28;20034;-70
2021/03/10 00:20:56;;;;;;;31.42;18.92;;;3.30;99.90;;;;;;4986952;28;20089;-75
2021/03/10 00:23:22;;;;;;;32.08;18.60;;;3.30;99.90;;;;;;4985429;28;20096;-70
2021/03/10 00:25:47;;;;;;;30.52;17.67;;;3.20;99.90;;;;;;4987194;28;20633;-70
2021/03/10 00:28:13;;;;;;;30.58;17.65;;;3.20;99.90;;;;;;4984881;28;20421;-70
2021/03/10 00:30:38;;;;;;;31.92;19.35;;;3.20;99.90;;;;;;4985677;28;20026;-71
2021/03/10 00:33:04;;;;;;;33.53;20.00;;;3.20;99.90;;;;;;4985444;28;20034;-75
2021/03/10 00:35:30;;;;;;;39.13;23.42;;;3.20;99.90;;;;;;4984940;28;20026;-70
2021/03/10 00:37:57;;;;;;;34.92;21.02;;;3.20;99.90;;;;;;4985234;28;20050;-75
2021/03/10 00:40:23;;;;;;;32.78;20.17;;;3.20;99.90;;;;;;4986055;28;20522;-75
2021/03/10 00:42:48;;;;;;;33.97;20.42;;;3.20;99.90;;;;;;4986160;28;20043;-70
2021/03/10 00:45:14;;;;;;;28.58;18.63;;;3.20;99.90;;;;;;4985794;28;20103;-70
2021/03/10 00:47:40;;;;;;;30.55;18.73;;;3.10;99.90;;;;;;4986183;28;20516;-71
2021/03/10 00:50:06;;;;;;;30.23;18.67;;;3.20;99.90;;;;;;4985146;28;20372;-70
2021/03/10 00:52:32;;;;;;;29.30;18.83;;;3.20;99.90;;;;;;4986208;28;20038;-70
2021/03/10 00:54:57;;;;;;;32.65;19.60;;;3.10;99.90;;;;;;4984769;28;20021;-75
2021/03/10 00:57:23;;;;;;;31.23;18.88;;;3.10;99.90;;;;;;4986428;28;20137;-70
2021/03/10 00:59:48;;;;;;;32.13;18.30;;;3.10;99.90;;;;;;4984867;28;20030;-71
2021/03/10 01:02:14;;;;;;;32.78;19.48;;;3.00;99.90;;;;;;4985790;28;20041;-70
2021/03/10 01:04:40;;;;;;;29.80;17.27;;;3.10;99.90;;;;;;4984558;28;20030;-70
2021/03/10 01:07:05;;;;;;;29.63;17.45;;;3.10;99.90;;;;;;4986841;28;20489;-70
2021/03/10 01:09:31;;;;;;;29.58;18.17;;;3.00;99.90;;;;;;4984478;28;20469;-70
2021/03/10 01:11:56;;;;;;;35.72;19.55;;;2.80;99.90;;;;;;4986164;28;20041;-70
2021/03/10 01:14:23;;;;;;;28.63;17.20;;;2.70;99.90;;;;;;4984133;28;20034;-70
2021/03/10 01:16:49;;;;;;;27.63;17.73;;;2.80;99.90;;;;;;4986611;28;20445;-70
2021/03/10 01:19:14;;;;;;;37.25;20.90;;;2.80;99.90;;;;;;4984319;28;20576;-70
2021/03/10 01:21:41;;;;;;;47.85;24.20;;;2.70;99.90;;;;;;4985581;28;20042;-70
2021/03/10 01:24:08;;;;;;;50.58;27.90;;;2.70;99.90;;;;;;4983834;28;20541;-75
2021/03/10 01:26:34;;;;;;;54.78;26.77;;;2.70;99.90;;;;;;4985842;28;20402;-70
2021/03/10 01:29:00;;;;;;;51.08;26.83;;;2.70;99.90;;;;;;4985661;28;20049;-70
2021/03/10 01:31:26;;;;;;;47.92;27.10;;;2.70;99.90;;;;;;4985149;28;20080;-70
2021/03/10 01:33:51;;;;;;;48.72;25.70;;;2.70;99.90;;;;;;4985782;28;20038;-70
2021/03/10 01:36:17;;;;;;;40.22;23.13;;;2.60;99.90;;;;;;4984652;28;20072;-70
2021/03/10 01:38:42;;;;;;;39.35;21.88;;;2.60;99.90;;;;;;4985236;28;20084;-70
2021/03/10 01:41:08;;;;;;;35.78;22.08;;;2.60;99.90;;;;;;4984345;28;20031;-70
2021/03/10 01:43:34;;;;;;;33.67;20.33;;;2.50;99.90;;;;;;4966822;28;20042;-70
2021/03/10 01:45:59;;;;;;;36.90;20.83;;;2.50;99.90;;;;;;4976276;28;20037;-70
2021/03/10 01:48:25;;;;;;;39.95;20.80;;;2.50;99.90;;;;;;4985743;28;20041;-70
2021/03/10 01:50:51;;;;;;;34.65;20.08;;;2.50;99.90;;;;;;4984275;28;20050;-70
2021/03/10 01:53:17;;;;;;;33.05;18.85;;;2.40;99.90;;;;;;4980602;28;20038;-70
2021/03/10 01:55:45;;;;;;;30.65;18.88;;;2.50;99.90;;;;;;4983881;28;20165;-70
2021/03/10 01:58:11;;;;;;;31.08;18.30;;;2.50;99.90;;;;;;4984381;28;20470;-70
2021/03/10 02:00:38;;;;;;;28.40;17.42;;;2.40;99.90;;;;;;4984062;28;20022;-70
2021/03/10 02:03:03;;;;;;;29.10;18.20;;;2.40;99.90;;;;;;4983404;28;20450;-70
2021/03/10 02:05:29;;;;;;;26.88;17.63;;;2.40;99.90;;;;;;4983185;28;20138;-70
2021/03/10 02:07:58;;;;;;;27.65;18.10;;;2.40;99.90;;;;;;4985300;28;20044;-70
2021/03/10 02:10:41;;;;;;;26.25;17.25;;;2.40;99.90;;;;;;4984616;28;20041;-70
2021/03/10 02:13:06;;;;;;;;;;;2.40;99.90;;;;;;4984557;28;20109;-70
2021/03/10 02:15:50;;;;;;;29.42;17.33;;;2.40;99.90;;;;;;4985042;28;20419;-75
2021/03/10 02:18:26;;;;;;;28.38;17.40;;;2.30;99.90;;;;;;4985592;28;20107;-70
2021/03/10 02:20:58;;;;;;;30.77;19.58;;;2.20;99.90;;;;;;4984340;28;20349;-70
2021/03/10 02:23:32;;;;;;;30.20;19.13;;;2.10;99.90;;;;;;4983692;28;20031;-70
2021/03/10 02:26:34;;;;;;;30.23;18.77;;;2.10;99.90;;;;;;4984084;28;20281;-70
2021/03/10 02:29:06;;;;;;;30.75;20.23;;;2.10;99.90;;;;;;4984854;28;20117;-70
2021/03/10 02:31:33;;;;;;;;;;;2.00;99.90;;;;;;4984442;28;20469;-70
2021/03/10 02:34:00;;;;;;;35.63;22.80;;;2.00;99.90;;;;;;4985496;28;19914;-70
2021/03/10 02:36:26;;;;;;;32.65;22.65;;;2.00;99.90;;;;;;4983739;28;20038;-70
2021/03/10 02:38:54;;;;;;;32.38;21.27;;;2.00;99.90;;;;;;4987093;28;20034;-70
2021/03/10 02:41:20;;;;;;;36.40;20.25;;;2.00;99.90;;;;;;4987287;28;20066;-70
2021/03/10 02:43:52;;;;;;;32.28;20.10;;;2.00;99.90;;;;;;4989586;28;20088;-70
2021/03/10 02:46:19;;;;;;;31.58;19.90;;;2.00;99.90;;;;;;4987393;28;20370;-70
2021/03/10 02:48:45;;;;;;;33.55;22.08;;;2.00;99.90;;;;;;4988920;28;20309;-70
2021/03/10 02:51:14;;;;;;;33.13;18.80;;;2.00;99.90;;;;;;4986700;28;20275;-70
2021/03/10 02:53:41;;;;;;;30.67;18.55;;;1.90;99.90;;;;;;4987965;28;20043;-70
2021/03/10 02:56:11;;;;;;;29.40;19.80;;;1.90;99.90;;;;;;4987587;28;20042;-76
2021/03/10 02:58:42;;;;;;;35.38;21.20;;;1.90;99.90;;;;;;4987764;28;20038;-70
2021/03/10 03:01:09;;;;;;;35.83;20.27;;;2.00;99.90;;;;;;4987304;28;20034;-70
2021/03/10 03:03:35;;;;;;;38.55;20.70;;;1.90;99.90;;;;;;4987818;28;20038;-75
2021/03/10 03:06:01;;;;;;;39.58;21.25;;;2.00;99.90;;;;;;4988651;28;20038;-70
2021/03/10 03:08:27;;;;;;;46.63;20.65;;;2.00;99.90;;;;;;4986604;28;20026;-70
2021/03/10 03:10:53;;;;;;;38.30;22.75;;;2.00;99.90;;;;;;4988696;28;20088;-70
2021/03/10 03:13:21;;;;;;;38.38;22.33;;;2.00;99.90;;;;;;4986635;28;20109;-70
2021/03/10 03:15:54;;;;;;;36.30;21.25;;;2.00;99.90;;;;;;4988704;28;20130;-70
2021/03/10 03:18:21;;;;;;;34.67;20.65;;;2.10;99.90;;;;;;4986484;28;20026;-70
2021/03/10 03:20:48;;;;;;;40.20;21.95;;;2.00;99.90;;;;;;4988529;28;20034;-70
2021/03/10 03:23:17;;;;;;;36.92;19.73;;;1.90;99.90;;;;;;4985570;28;20042;-70
2021/03/10 03:25:43;;;;;;;36.67;20.38;;;1.90;99.90;;;;;;4988155;28;20038;-70
2021/03/10 03:28:11;;;;;;;37.30;21.25;;;1.90;99.90;;;;;;4986241;28;20113;-70
2021/03/10 03:30:38;;;;;;;32.22;19.70;;;1.90;99.90;;;;;;4983860;28;20049;-70
2021/03/10 03:33:08;;;;;;;39.35;22.38;;;1.90;99.90;;;;;;4986821;28;20103;-70
2021/03/10 03:35:34;;;;;;;33.78;19.67;;;1.80;99.90;;;;;;4987062;28;20045;-70
2021/03/10 03:38:02;;;;;;;30.55;17.55;;;1.90;99.90;;;;;;4986271;28;20066;-70
2021/03/10 03:40:27;;;;;;;31.67;18.50;;;1.90;99.90;;;;;;4988068;28;20034;-70
2021/03/10 03:42:53;;;;;;;33.30;20.00;;;1.70;99.90;;;;;;4986342;28;20037;-76
2021/03/10 03:45:21;;;;;;;31.50;19.30;;;1.80;99.90;;;;;;4987502;28;20027;-70
2021/03/10 03:47:54;;;;;;;31.40;19.17;;;1.80;99.90;;;;;;4985656;28;20038;-70
2021/03/10 03:50:25;;;;;;;34.58;20.58;;;1.80;99.90;;;;;;4987101;28;20035;-70
2021/03/10 03:52:51;;;;;;;34.25;19.80;;;1.80;99.90;;;;;;4986787;28;20038;-75
2021/03/10 03:55:17;;;;;;;31.88;18.85;;;1.80;99.90;;;;;;4986093;28;20046;-70
2021/03/10 03:57:43;;;;;;;35.22;21.55;;;1.70;99.90;;;;;;4987595;28;20032;-70
2021/03/10 04:00:12;;;;;;;32.45;18.63;;;1.70;99.90;;;;;;4986180;28;20031;-70
2021/03/10 04:02:38;;;;;;;33.95;20.10;;;1.70;99.90;;;;;;4986977;28;20057;-70
2021/03/10 04:05:05;;;;;;;36.28;21.02;;;1.70;99.90;;;;;;4986710;28;20378;-70
2021/03/10 04:07:30;;;;;;;34.72;20.38;;;1.60;99.90;;;;;;4987324;28;20038;-70
2021/03/10 04:09:56;;;;;;;34.78;20.00;;;1.60;99.90;;;;;;4985873;28;20084;-70
2021/03/10 04:12:22;;;;;;;30.55;18.90;;;1.70;99.90;;;;;;4986647;28;20066;-70
2021/03/10 04:14:48;;;;;;;28.42;17.80;;;1.70;99.90;;;;;;4985731;28;20073;-75
2021/03/10 04:17:14;;;;;;;30.67;17.77;;;1.60;99.90;;;;;;4987198;28;20044;-70
2021/03/10 04:19:40;;;;;;;33.03;18.73;;;1.60;99.90;;;;;;4985265;28;20077;-70
2021/03/10 04:22:06;;;;;;;27.67;18.00;;;1.60;99.90;;;;;;4986534;28;20113;-70
2021/03/10 04:24:31;;;;;;;29.38;17.90;;;1.40;99.90;;;;;;4984595;28;20023;-70
2021/03/10 04:26:57;;;;;;;31.35;18.30;;;1.30;99.90;;;;;;4987629;28;20118;-75
2021/03/10 04:29:23;;;;;;;35.90;19.33;;;1.20;99.90;;;;;;4985350;28;20407;-70
2021/03/10 04:31:48;;;;;;;34.33;19.10;;;1.30;99.90;;;;;;4986509;28;20034;-70
2021/03/10 04:34:14;;;;;;;33.78;19.52;;;1.40;99.90;;;;;;4986757;28;20489;-70
2021/03/10 04:36:39;;;;;;;31.25;18.92;;;1.40;99.90;;;;;;4986918;28;20049;-70
2021/03/10 04:39:05;;;;;;;33.05;18.80;;;1.40;99.90;;;;;;4986199;28;20104;-70
2021/03/10 04:41:31;;;;;;;32.45;19.83;;;1.40;99.90;;;;;;4986735;28;20034;-70
2021/03/10 04:43:57;;;;;;;30.58;18.38;;;1.40;99.90;;;;;;4985952;28;20564;-70
2021/03/10 04:46:22;;;;;;;31.70;18.73;;;1.40;99.90;;;;;;4985492;28;20061;-70
2021/03/10 04:48:48;;;;;;;33.20;18.38;;;1.40;99.90;;;;;;4986849;28;20061;-71
2021/03/10 04:51:14;;;;;;;28.83;18.73;;;1.40;99.90;;;;;;4984603;28;20688;-70
2021/03/10 04:53:39;;;;;;;33.05;20.05;;;1.40;99.90;;;;;;4984916;28;20042;-70
2021/03/10 04:56:05;;;;;;;31.58;17.75;;;1.40;99.90;;;;;;4985091;28;20522;-70
2021/03/10 04:58:31;;;;;;;30.40;18.70;;;1.40;99.90;;;;;;4985005;28;20041;-70
2021/03/10 05:00:56;;;;;;;29.05;17.33;;;1.30;99.90;;;;;;4986262;28;20524;-70
2021/03/10 05:03:22;;;;;;;32.35;18.58;;;1.30;99.90;;;;;;4985109;28;20038;-70
2021/03/10 05:05:47;;;;;;;32.60;19.73;;;1.30;99.90;;;;;;4986663;28;20141;-70
2021/03/10 05:08:13;;;;;;;35.97;18.90;;;1.20;99.90;;;;;;4984386;28;20069;-70
2021/03/10 05:10:39;;;;;;;33.25;18.83;;;1.20;99.90;;;;;;4985280;28;20057;-70
2021/03/10 05:13:04;;;;;;;31.40;19.73;;;1.10;99.90;;;;;;4986000;28;20105;-70
2021/03/10 05:15:30;;;;;;;31.45;19.02;;;1.00;99.90;;;;;;4983731;28;20489;-70
2021/03/10 05:17:56;;;;;;;34.25;19.13;;;1.00;99.90;;;;;;4986614;28;20039;-70
2021/03/10 05:20:22;;;;;;;30.20;18.42;;;1.10;99.90;;;;;;4984082;28;20060;-70
2021/03/10 05:22:47;;;;;;;30.20;19.15;;;1.20;99.90;;;;;;4986299;28;20505;-70
2021/03/10 05:25:13;;;;;;;32.42;19.13;;;1.20;99.90;;;;;;4984091;28;20030;-70
2021/03/10 05:27:39;;;;;;;34.55;19.92;;;1.20;99.90;;;;;;4986155;28;20402;-70
2021/03/10 05:30:08;;;;;;;33.10;18.35;;;1.20;99.90;;;;;;4984269;28;20061;-70
2021/03/10 05:32:34;;;;;;;33.58;20.30;;;1.20;99.90;;;;;;4986089;28;20069;-70
2021/03/10 05:35:00;;;;;;;31.15;18.95;;;1.20;99.90;;;;;;4984181;28;20038;-70
2021/03/10 05:37:25;;;;;;;27.75;17.10;;;1.20;99.90;;;;;;4985703;28;20106;-70
2021/03/10 05:39:51;;;;;;;27.65;17.00;;;1.10;99.90;;;;;;4985609;28;20478;-70
2021/03/10 05:42:17;;;;;;;26.02;17.02;;;1.20;99.90;;;;;;4984544;28;20108;-70
2021/03/10 05:44:43;;;;;;;29.92;18.70;;;1.10;99.90;;;;;;4985551;28;20046;-70
2021/03/10 05:47:09;;;;;;;41.00;20.88;;;1.10;99.90;;;;;;4984487;28;20038;-70
2021/03/10 05:49:35;;;;;;;30.85;19.42;;;1.00;99.90;;;;;;4985570;28;20033;-70
2021/03/10 05:52:04;;;;;;;32.70;19.02;;;1.10;99.90;;;;;;4984322;28;20596;-70
2021/03/10 05:54:31;;;;;;;30.00;17.55;;;1.00;99.90;;;;;;4985796;28;20038;-70
2021/03/10 05:57:00;;;;;;;35.50;18.20;;;1.00;99.90;;;;;;4984050;28;20121;-70
2021/03/10 05:59:28;;;;;;;36.55;19.17;;;1.10;99.90;;;;;;4966801;28;20042;-70
2021/03/10 06:01:54;;;;;;;33.38;18.45;;;1.10;99.90;;;;;;4980242;28;20068;-70
2021/03/10 06:04:20;;;;;;;34.58;20.38;;;1.10;99.90;;;;;;4986027;28;20038;-70
2021/03/10 06:06:46;;;;;;;30.20;18.95;;;1.10;99.90;;;;;;4984839;28;20480;-70
2021/03/10 06:09:15;;;;;;;34.40;17.17;;;1.10;99.90;;;;;;4968383;28;20370;-70
2021/03/10 06:11:57;;;;;;;33.10;18.77;;;1.20;99.90;;;;;;4974111;28;20397;-70
2021/03/10 06:14:24;;;;;;;33.33;19.77;;;1.20;99.90;;;;;;4984852;28;20026;-70
2021/03/10 06:17:05;;;;;;;32.70;19.80;;;1.20;99.90;;;;;;4982978;28;20173;-70
2021/03/10 06:19:51;;;;;;;31.65;18.10;;;1.20;99.90;;;;;;4982024;28;20038;-70
2021/03/10 06:22:18;;;;;;;32.45;18.13;;;1.10;99.90;;;;;;4982531;28;20042;-70
2021/03/10 06:24:44;;;;;;;39.92;18.90;;;1.20;99.90;;;;;;4978047;28;20450;-70
2021/03/10 06:27:10;;;;;;;30.38;19.58;;;1.20;99.90;;;;;;4983848;28;20545;-70
2021/03/10 06:29:36;;;;;;;33.30;17.40;;;1.20;99.90;;;;;;4985737;28;20112;-70
2021/03/10 06:32:09;;;;;;;34.55;19.75;;;1.20;99.90;;;;;;4983920;28;20030;-70
2021/03/10 06:34:45;;;;;;;35.35;20.55;;;1.30;99.90;;;;;;4982305;28;20049;-70
2021/03/10 06:37:11;;;;;;;34.90;19.25;;;1.40;99.90;;;;;;4982342;28;20081;-70
2021/03/10 06:39:37;;;;;;;36.75;20.05;;;1.40;99.90;;;;;;4977081;28;20035;-70
2021/03/10 06:42:13;;;;;;;37.28;20.55;;;1.40;99.90;;;;;;4973862;28;20034;-76
2021/03/10 06:44:49;;;;;;;31.10;18.33;;;1.40;99.90;;;;;;4985395;28;20066;-70
2021/03/10 06:47:15;;;;;;;33.55;19.27;;;1.50;99.90;;;;;;4978711;28;20466;-70
2021/03/10 06:49:53;;;;;;;35.08;18.23;;;1.50;99.90;;;;;;4979627;28;20493;-70
2021/03/10 06:52:19;;;;;;;33.42;19.38;;;1.50;99.90;;;;;;4984484;28;20429;-75
2021/03/10 06:54:54;;;;;;;33.58;19.05;;;1.60;99.90;;;;;;4975874;28;20041;-75
2021/03/10 06:57:20;;;;;;;40.80;21.08;;;1.60;99.90;;;;;;4979597;28;20049;-76
2021/03/10 06:59:50;;;;;;;36.42;20.65;;;1.60;99.90;;;;;;4984874;28;20026;-70
2021/03/10 07:02:17;;;;;;;40.80;20.85;;;1.60;99.90;;;;;;4982282;28;20405;-70
2021/03/10 07:04:44;;;;;;;37.45;21.05;;;1.60;99.90;;;;;;4981974;28;20119;-70
2021/03/10 07:07:10;;;;;;;38.03;20.48;;;1.70;99.90;;;;;;4978865;28;20492;-70
2021/03/10 07:09:37;;;;;;;36.70;21.05;;;1.70;99.90;;;;;;4981865;28;20085;-70
2021/03/10 07:12:03;;;;;;;38.55;22.00;;;1.70;99.90;;;;;;4981394;28;20402;-71
2021/03/10 07:14:29;;;;;;;41.78;20.88;;;1.70;99.90;;;;;;4986306;28;20425;-74
2021/03/10 07:16:56;;;;;;;38.45;21.60;;;1.80;99.90;;;;;;4982189;28;20031;-70
2021/03/10 07:19:22;;;;;;;34.65;20.02;;;1.80;99.90;;;;;;4984538;28;20045;-75
2021/03/10 07:21:56;;;;;;;33.97;19.15;;;1.80;99.90;;;;;;4982031;28;20394;-70
2021/03/10 07:24:27;;;;;;;37.35;20.13;;;1.90;99.90;;;;;;4981660;28;20034;-71
2021/03/10 07:26:55;;;;;;;32.55;19.80;;;2.00;99.90;;;;;;4983216;28;20034;-70
2021/03/10 07:29:21;;;;;;;32.90;19.48;;;2.00;99.90;;;;;;4985720;28;20034;-75
2021/03/10 07:31:57;;;;;;;32.85;17.63;;;2.00;99.90;;;;;;4980846;28;20093;-70
2021/03/10 07:34:27;;;;;;;34.58;18.30;;;2.20;99.90;;;;;;4984718;28;20030;-70
2021/03/10 07:36:53;;;;;;;31.17;17.23;;;2.30;99.90;;;;;;4983987;28;20034;-71
2021/03/10 07:39:24;;;;;;;30.88;19.80;;;2.40;99.90;;;;;;4981533;28;20045;-70
2021/03/10 07:41:51;;;;;;;32.63;19.55;;;2.50;99.90;;;;;;4978138;28;20037;-70
2021/03/10 07:44:20;;;;;;;33.55;17.08;;;2.60;99.90;;;;;;4979512;28;20041;-69
2021/03/10 07:46:49;;;;;;;34.03;20.25;;;2.70;99.90;;;;;;4978335;28;20041;-74
2021/03/10 07:49:23;;;;;;;34.63;19.15;;;2.80;99.90;;;;;;4978953;28;20074;-69
2021/03/10 07:52:01;;;;;;;34.22;18.52;;;3.00;99.90;;;;;;4981706;28;20037;-69
2021/03/10 07:54:27;;;;;;;30.05;16.67;;;3.20;99.90;;;;;;4983289;28;20052;-74
2021/03/10 07:57:08;;;;;;;28.23;16.13;;;3.40;99.90;;;;;;4977130;28;20054;-69
2021/03/10 07:59:35;;;;;;;34.42;17.73;;;3.60;99.90;;;;;;4984368;28;20034;-74
2021/03/10 08:02:03;;;;;;;32.42;16.27;;;3.60;99.90;;;;;;4978625;28;20049;-69
2021/03/10 08:04:29;;;;;;;30.35;16.48;;;3.70;99.90;;;;;;4986168;28;20069;-69
2021/03/10 08:06:55;;;;;;;26.73;15.68;;;3.90;99.90;;;;;;4978061;28;20109;-69
2021/03/10 08:09:25;;;;;;;26.25;15.63;;;4.10;99.90;;;;;;4978948;28;20043;-69
2021/03/10 08:12:09;;;;;;;31.13;16.98;;;4.30;99.90;;;;;;4983634;28;20026;-69
2021/03/10 08:14:38;;;;;;;24.33;15.88;;;4.50;99.90;;;;;;4977493;28;20034;-69
2021/03/10 08:17:05;;;;;;;22.50;15.30;;;4.70;99.90;;;;;;4977388;28;20038;-70
2021/03/10 08:19:32;;;;;;;23.92;14.95;;;4.90;99.90;;;;;;4982147;28;20516;-74
2021/03/10 08:21:58;;;;;;;25.27;16.95;;;5.10;99.90;;;;;;4978149;28;20373;-69
2021/03/10 08:24:25;;;;;;;27.50;14.90;;;5.20;99.90;;;;;;4980888;28;20036;-69
2021/03/10 08:27:03;;;;;;;27.20;14.75;;;5.30;99.90;;;;;;4978046;28;20038;-70
2021/03/10 08:29:31;;;;;;;23.33;13.55;;;5.50;99.90;;;;;;4980303;28;20454;-70
2021/03/10 08:31:57;;;;;;;19.00;12.95;;;5.60;99.90;;;;;;4978791;28;20072;-70
2021/03/10 08:34:32;;;;;;;21.85;12.68;;;5.50;99.90;;;;;;4977054;28;20038;-70
2021/03/10 08:36:58;;;;;;;20.05;13.32;;;5.60;99.90;;;;;;4977269;28;20041;-70
2021/03/10 08:39:24;;;;;;;26.10;13.77;;;5.70;99.90;;;;;;4982458;28;20461;-70
2021/03/10 08:41:54;;;;;;;20.67;13.43;;;6.00;99.90;;;;;;4974454;28;20042;-75
2021/03/10 08:44:22;;;;;;;23.70;15.02;;;5.90;99.90;;;;;;4980575;28;20038;-70
2021/03/10 08:46:48;;;;;;;24.98;13.15;;;6.20;99.90;;;;;;4977244;28;20073;-70
2021/03/10 08:49:18;;;;;;;23.02;13.93;;;6.30;99.90;;;;;;4980668;28;20030;-70
2021/03/10 08:51:43;;;;;;;21.75;13.57;;;6.40;99.90;;;;;;4976079;28;20058;-70
2021/03/10 08:54:09;;;;;;;19.95;13.00;;;6.60;99.90;;;;;;4980473;28;20460;-70
2021/03/10 08:56:46;;;;;;;23.67;13.80;;;6.60;99.90;;;;;;4976213;28;20057;-70
2021/03/10 08:59:12;;;;;;;25.20;13.55;;;6.30;99.90;;;;;;4981871;28;20034;-70
2021/03/10 09:01:51;;;;;;;22.20;13.40;;;6.40;99.90;;;;;;4981483;28;20460;-70
2021/03/10 09:04:26;;;;;;;23.80;13.60;;;6.50;99.90;;;;;;4978769;28;20030;-70
2021/03/10 09:06:55;;;;;;;25.67;15.27;;;6.50;99.90;;;;;;4978741;28;20865;-69
2021/03/10 09:09:21;;;;;;;29.02;15.18;;;6.40;99.90;;;;;;4981940;28;20034;-70
2021/03/10 09:11:48;;;;;;;27.58;13.55;;;6.50;99.90;;;;;;4980948;28;20027;-69
2021/03/10 09:14:14;;;;;;;24.75;14.38;;;6.50;99.90;;;;;;4984190;28;20026;-69
2021/03/10 09:16:57;;;;;;;27.45;15.18;;;6.70;99.90;;;;;;4977727;28;20033;-75
2021/03/10 09:19:59;;;;;;;30.10;14.77;;;6.90;99.90;;;;;;4984092;28;20037;-69
2021/03/10 09:22:26;;;;;;;23.67;14.63;;;6.70;99.90;;;;;;4973636;28;20058;-70
2021/03/10 09:24:54;;;;;;;24.77;15.13;;;6.60;99.90;;;;;;4977829;28;20054;-69
2021/03/10 09:27:23;;;;;;;27.60;14.43;;;6.60;99.90;;;;;;4979091;28;20434;-70
2021/03/10 09:29:54;;;;;;;24.45;14.18;;;6.40;99.90;;;;;;4977879;28;20027;-69
2021/03/10 09:32:20;;;;;;;23.55;13.10;;;6.30;99.90;;;;;;4979178;28;20457;-69
2021/03/10 09:34:48;;;;;;;25.95;14.82;;;6.50;99.90;;;;;;4980952;28;20385;-70
2021/03/10 09:37:14;;;;;;;23.90;14.13;;;6.70;99.90;;;;;;4974423;28;20034;-69
2021/03/10 09:39:51;;;;;;;24.65;13.95;;;6.70;99.90;;;;;;4983303;28;20032;-70
2021/03/10 09:42:17;;;;;;;21.98;13.15;;;6.50;99.90;;;;;;4972117;28;20038;-69
2021/03/10 09:44:45;;;;;;;20.02;11.75;;;6.50;99.90;;;;;;4981716;28;20039;-69
2021/03/10 09:47:16;;;;;;;22.92;12.52;;;6.50;99.90;;;;;;4980385;28;20047;-70
2021/03/10 09:49:55;;;;;;;24.25;12.07;;;6.70;99.90;;;;;;4981037;28;20385;-70
2021/03/10 09:52:32;;;;;;;21.45;12.20;;;6.70;99.20;;;;;;4980840;28;20557;-70
2021/03/10 09:54:59;;;;;;;24.67;12.90;;;6.60;98.90;;;;;;4980635;28;20014;-69
2021/03/10 09:57:30;;;;;;;20.70;13.13;;;6.60;99.30;;;;;;4978942;28;20042;-69
2021/03/10 09:59:57;;;;;;;24.27;13.02;;;6.60;98.90;;;;;;4977558;28;20371;-69
2021/03/10 10:02:24;;;;;;;20.63;11.98;;;6.60;98.60;;;;;;4978265;28;20125;-70
2021/03/10 10:05:05;;;;;;;19.30;11.88;;;6.60;98.70;;;;;;4984357;28;20054;-74
2021/03/10 10:07:31;;;;;;;28.17;13.27;;;6.70;99.60;;;;;;4980545;28;20289;-69
2021/03/10 10:09:57;;;;;;;23.50;12.52;;;6.70;99.90;;;;;;4976234;28;20045;-70
2021/03/10 10:12:24;;;;;;;25.42;13.60;;;6.80;99.00;;;;;;4975453;28;20066;-70
2021/03/10 10:14:50;;;;;;;24.02;12.23;;;6.70;98.10;;;;;;4978699;28;20031;-69
2021/03/10 10:17:17;;;;;;;18.80;11.32;;;6.80;98.00;;;;;;4977276;28;20315;-70
2021/03/10 10:19:43;;;;;;;21.45;12.55;;;6.90;98.20;;;;;;4981024;28;20035;-70
2021/03/10 10:22:09;;;;;;;20.52;13.00;;;7.00;98.60;;;;;;4981116;28;20049;-69
2021/03/10 10:24:35;;;;;;;18.40;12.63;;;7.30;98.00;;;;;;4979911;28;20215;-69
2021/03/10 10:27:01;;;;;;;21.95;13.93;;;7.40;97.40;;;;;;4981504;28;20532;-70
2021/03/10 10:29:26;;;;;;;21.55;13.48;;;7.70;99.80;;;;;;4974468;28;20039;-70
2021/03/10 10:31:52;;;;;;;19.98;12.55;;;8.00;98.50;;;;;;4979453;28;20501;-70
2021/03/10 10:34:18;;;;;;;23.10;13.90;;;8.40;97.70;;;;;;4983933;28;20041;-70
2021/03/10 10:36:44;;;;;;;18.95;12.13;;;8.70;98.20;;;;;;4981446;28;20026;-70
2021/03/10 10:39:09;;;;;;;23.75;13.13;;;9.00;96.20;;;;;;4981351;28;20038;-70
2021/03/10 10:41:35;;;;;;;21.55;13.82;;;8.90;96.60;;;;;;4980894;28;20038;-70
2021/03/10 10:44:01;;;;;;;22.00;13.32;;;9.20;95.40;;;;;;4979702;28;20129;-70
2021/03/10 10:46:27;;;;;;;21.65;14.20;;;9.20;94.00;;;;;;4975338;28;20057;-70
2021/03/10 10:48:52;;;;;;;22.00;13.73;;;9.20;93.40;;;;;;4978180;28;20088;-70
2021/03/10 10:51:21;;;;;;;21.77;14.15;;;8.90;92.10;;;;;;4974476;28;20038;-74
2021/03/10 10:53:47;;;;;;;21.67;12.70;;;8.80;92.90;;;;;;4979452;28;20034;-70
2021/03/10 10:56:13;;;;;;;20.25;13.25;;;9.20;93.10;;;;;;4976181;28;20050;-75
2021/03/10 10:58:38;;;;;;;22.42;13.32;;;9.50;92.60;;;;;;4977884;28;20235;-70
2021/03/10 11:01:04;;;;;;;21.40;13.50;;;9.50;91.50;;;;;;4977716;28;20080;-70
2021/03/10 11:03:30;;;;;;;20.27;13.70;;;9.30;91.30;;;;;;4982750;28;20045;-70
2021/03/10 11:05:55;;;;;;;26.30;13.68;;;9.40;91.30;;;;;;4979360;28;20093;-70
2021/03/10 11:08:21;;;;;;;20.25;13.25;;;9.40;90.80;;;;;;4979215;28;20031;-70
2021/03/10 11:10:47;;;;;;;20.40;12.57;;;9.60;90.00;;;;;;4980444;28;20110;-71
2021/03/10 11:13:12;;;;;;;19.15;12.20;;;9.80;89.20;;;;;;4982664;28;20402;-70
2021/03/10 11:15:38;;;;;;;24.63;13.30;;;9.80;87.80;;;;;;4982574;28;20036;-70
2021/03/10 11:18:04;;;;;;;20.33;13.20;;;10.00;87.70;;;;;;4980608;28;20466;-70
2021/03/10 11:20:29;;;;;;;21.75;14.10;;;10.10;85.20;;;;;;4978399;28;20022;-70
2021/03/10 11:22:55;;;;;;;22.88;12.80;;;9.90;84.00;;;;;;4981532;28;20473;-70
2021/03/10 11:25:21;;;;;;;19.63;13.23;;;9.90;86.20;;;;;;4983590;28;20050;-70
2021/03/10 11:27:46;;;;;;;17.98;11.82;;;10.20;86.30;;;;;;4981665;28;20031;-70
2021/03/10 11:30:14;;;;;;;22.35;12.15;;;10.40;85.20;;;;;;4982858;28;20320;-70
2021/03/10 11:32:40;;;;;;;19.77;11.45;;;10.60;84.40;;;;;;4977706;28;20062;-70
2021/03/10 11:35:08;;;;;;;24.88;12.05;;;10.50;81.20;;;;;;4985104;28;20061;-71
2021/03/10 11:37:34;;;;;;;20.08;12.45;;;10.40;80.80;;;;;;4980519;28;20165;-70
2021/03/10 11:40:00;;;;;;;21.45;12.60;;;10.30;80.90;;;;;;4981935;28;20117;-70
2021/03/10 11:42:26;;;;;;;23.02;13.43;;;10.20;81.60;;;;;;4981949;28;20485;-70
2021/03/10 11:44:52;;;;;;;18.77;12.32;;;10.10;80.30;;;;;;4980608;28;20042;-70
2021/03/10 11:47:17;;;;;;;18.52;12.45;;;10.40;80.60;;;;;;4980331;28;20074;-70
2021/03/10 11:49:43;;;;;;;19.02;11.85;;;10.70;80.90;;;;;;4977931;28;20046;-70
2021/03/10 11:52:09;;;;;;;19.20;11.25;;;11.00;78.50;;;;;;4979324;28;20045;-70
2021/03/10 11:54:35;;;;;;;16.55;10.90;;;11.10;76.00;;;;;;4981199;28;20220;-70
2021/03/10 11:57:01;;;;;;;17.98;10.43;;;11.10;73.20;;;;;;4979615;28;20703;-70
2021/03/10 11:59:26;;;;;;;22.40;11.45;;;11.10;73.50;;;;;;4980214;28;20517;-70
2021/03/10 12:01:52;;;;;;;19.27;11.90;;;11.20;75.60;;;;;;4976198;28;20026;-70
2021/03/10 12:04:18;;;;;;;17.92;11.68;;;11.20;75.30;;;;;;4984209;28;20034;-71
2021/03/10 12:06:43;;;;;;;18.38;11.38;;;11.10;73.40;;;;;;4979496;28;20061;-70
2021/03/10 12:09:09;;;;;;;18.52;11.20;;;11.00;75.00;;;;;;4979115;28;20057;-70
2021/03/10 12:11:35;;;;;;;15.68;10.63;;;11.10;75.30;;;;;;4983090;28;20133;-70
2021/03/10 12:14:01;;;;;;;17.25;9.52;;;11.40;74.30;;;;;;4983313;28;20038;-70
2021/03/10 12:16:26;;;;;;;20.73;10.07;;;11.40;72.20;;;;;;4976743;28;20286;-70
2021/03/10 12:18:52;;;;;;;15.88;9.52;;;11.40;71.50;;;;;;4981592;28;20615;-76
2021/03/10 12:21:18;;;;;;;20.33;9.77;;;11.30;71.40;;;;;;4980097;28;20492;-70
2021/03/10 12:23:43;;;;;;;13.43;8.95;;;11.20;69.30;;;;;;4981422;28;20038;-75
2021/03/10 12:26:09;;;;;;;14.13;9.18;;;11.30;69.90;;;;;;4982189;28;20158;-70
2021/03/10 12:28:35;;;;;;;15.13;9.00;;;10.80;64.50;;;;;;4981559;28;20129;-70
2021/03/10 12:31:02;;;;;;;15.02;8.60;;;10.90;68.20;;;;;;4979361;28;20092;-70
2021/03/10 12:33:27;;;;;;;14.13;8.65;;;11.10;70.30;;;;;;4983056;28;20035;-70
2021/03/10 12:35:53;;;;;;;20.55;8.77;;;11.20;69.30;;;;;;4978265;28;20045;-70
2021/03/10 12:38:19;;;;;;;14.35;8.20;;;11.30;63.30;;;;;;4977172;28;20039;-70
2021/03/10 12:40:44;;;;;;;14.07;7.82;;;10.90;62.80;;;;;;4980549;28;20556;-75